Time;durP1;ratioP1;P1;durP2;ratioP2;P2;SDS_P1;SDS_P2;PMS_P1;PMS_P2;Temp;Humidity;BMP_temperature;BMP_pressure;BME280_temperature;BME280_humidity;BME280_pressure;Samples;Min_cycle;Max_cycle;Signal;HPM_P1;HPM_P2
2024/04/22 00:00:29;;;;;;;4.88;1.75;;;;;;;;;;5527244;26;19993;-55
2024/04/22 00:02:55;;;;;;;4.63;1.73;;;;;;;;;;5526386;25;20441;-55
2024/04/22 00:05:21;;;;;;;5.57;1.67;;;;;;;;;;5534059;25;19993;-54
2024/04/22 00:07:48;;;;;;;3.92;2.00;;;;;;;;;;5550340;25;20443;-55
2024/04/22 00:10:14;;;;;;;3.67;1.70;;;;;;;;;;5528816;25;19997;-55
2024/04/22 00:12:40;;;;;;;6.63;1.98;;;;;;;;;;5526733;25;19993;-55
2024/04/22 00:15:06;;;;;;;3.00;1.90;;;;;;;;;;5562089;25;19997;-55
2024/04/22 00:17:32;;;;;;;6.30;2.13;;;;;;;;;;5562697;25;20012;-56
2024/04/22 00:19:58;;;;;;;3.47;1.60;;;;;;;;;;5538141;25;20012;-55
2024/04/22 00:22:24;;;;;;;4.63;1.85;;;;;;;;;;5526518;26;20013;-55
2024/04/22 00:24:50;;;;;;;3.38;1.95;;;;;;;;;;5528319;25;19997;-55
2024/04/22 00:27:16;;;;;;;4.25;1.58;;;;;;;;;;5526559;25;20013;-54
2024/04/22 00:29:42;;;;;;;6.05;2.42;;;;;;;;;;5525714;25;19993;-55
2024/04/22 00:32:08;;;;;;;8.68;2.25;;;;;;;;;;5523994;25;20008;-55
2024/04/22 00:34:34;;;;;;;6.68;2.35;;;;;;;;;;5526568;25;20402;-54
2024/04/22 00:37:00;;;;;;;5.72;1.73;;;;;;;;;;5528452;25;20021;-56
2024/04/22 00:39:26;;;;;;;4.95;1.88;;;;;;;;;;5535054;25;19994;-55
2024/04/22 00:41:52;;;;;;;3.17;2.15;;;;;;;;;;5538590;25;20008;-55
2024/04/22 00:44:18;;;;;;;6.82;2.60;;;;;;;;;;5543972;25;19993;-55
2024/04/22 00:46:44;;;;;;;3.88;2.15;;;;;;;;;;5526258;25;20005;-55
2024/04/22 00:49:10;;;;;;;7.28;2.78;;;;;;;;;;5526384;25;20001;-59
2024/04/22 00:51:38;;;;;;;4.80;2.50;;;;;;;;;;5528882;25;20009;-55
2024/04/22 00:54:05;;;;;;;5.57;2.30;;;;;;;;;;5525513;25;20069;-59
2024/04/22 00:56:32;;;;;;;6.20;2.50;;;;;;;;;;5552514;25;19993;-59
2024/04/22 00:59:00;;;;;;;4.72;2.00;;;;;;;;;;5529473;25;19997;-59
2024/04/22 01:01:27;;;;;;;5.35;2.17;;;;;;;;;;5525606;25;20077;-59
2024/04/22 01:03:53;;;;;;;3.75;2.10;;;;;;;;;;5557348;25;20480;-59
2024/04/22 01:06:19;;;;;;;6.05;2.60;;;;;;;;;;5537282;25;19999;-58
2024/04/22 01:08:45;;;;;;;4.18;2.40;;;;;;;;;;5533389;25;20001;-59
2024/04/22 01:11:11;;;;;;;6.22;2.78;;;;;;;;;;5544410;25;20019;-58
2024/04/22 01:13:38;;;;;;;8.15;2.55;;;;;;;;;;5529733;25;20012;-56
2024/04/22 01:16:04;;;;;;;7.55;2.08;;;;;;;;;;5539689;25;20379;-59
2024/04/22 01:18:30;;;;;;;6.70;2.67;;;;;;;;;;5536888;25;20008;-58
2024/04/22 01:20:56;;;;;;;10.18;2.78;;;;;;;;;;5525883;25;19997;-59
2024/04/22 01:23:22;;;;;;;3.85;2.05;;;;;;;;;;5532012;25;19998;-58
2024/04/22 01:25:58;;;;;;;5.10;2.38;;;;;;;;;;5540990;25;19989;-59
2024/04/22 01:28:24;;;;;;;4.40;2.38;;;;;;;;;;5537351;25;19996;-59
2024/04/22 01:30:50;;;;;;;7.13;2.38;;;;;;;;;;5533804;25;20049;-60
2024/04/22 01:33:16;;;;;;;5.53;2.40;;;;;;;;;;5524925;25;19997;-59
2024/04/22 01:35:42;;;;;;;5.30;2.38;;;;;;;;;;5525493;25;20012;-58
2024/04/22 01:38:08;;;;;;;7.28;2.58;;;;;;;;;;5528805;25;20651;-59
2024/04/22 01:40:34;;;;;;;4.93;2.45;;;;;;;;;;5531586;25;20065;-58
2024/04/22 01:43:00;;;;;;;5.50;2.40;;;;;;;;;;5528860;25;19997;-58
2024/04/22 01:45:26;;;;;;;9.88;2.35;;;;;;;;;;5525201;25;19997;-59
2024/04/22 01:47:52;;;;;;;5.63;2.97;;;;;;;;;;5544676;25;20416;-59
2024/04/22 01:50:18;;;;;;;6.15;2.70;;;;;;;;;;5557635;25;19996;-55
2024/04/22 01:52:44;;;;;;;7.78;2.63;;;;;;;;;;5536678;25;19997;-54
2024/04/22 01:55:10;;;;;;;5.50;2.10;;;;;;;;;;5526280;25;20002;-55
2024/04/22 01:57:36;;;;;;;6.18;2.70;;;;;;;;;;5531893;25;20318;-55
2024/04/22 02:00:02;;;;;;;4.82;2.50;;;;;;;;;;5527759;25;19997;-59
2024/04/22 02:02:28;;;;;;;4.60;2.17;;;;;;;;;;5525252;25;19997;-59
2024/04/22 02:04:54;;;;;;;4.50;2.25;;;;;;;;;;5525388;25;19998;-59
2024/04/22 02:07:20;;;;;;;3.92;2.03;;;;;;;;;;5540868;25;20001;-59
2024/04/22 02:09:46;;;;;;;5.30;2.22;;;;;;;;;;5558506;25;20001;-58
2024/04/22 02:12:12;;;;;;;4.00;2.33;;;;;;;;;;5524946;25;20039;-59
2024/04/22 02:14:38;;;;;;;4.07;2.25;;;;;;;;;;5525290;26;20026;-59
2024/04/22 02:17:04;;;;;;;5.95;2.10;;;;;;;;;;5524327;25;19993;-59
2024/04/22 02:19:30;;;;;;;6.45;2.30;;;;;;;;;;5525056;25;20446;-57
2024/04/22 02:21:56;;;;;;;4.32;2.22;;;;;;;;;;5525050;26;20345;-59
2024/04/22 02:24:22;;;;;;;4.20;2.00;;;;;;;;;;5525562;25;19998;-59
2024/04/22 02:26:48;;;;;;;5.57;2.55;;;;;;;;;;5525193;25;20051;-59
2024/04/22 02:29:14;;;;;;;6.28;2.20;;;;;;;;;;5526164;25;20461;-59
2024/04/22 02:31:40;;;;;;;7.45;2.03;;;;;;;;;;5524569;25;20326;-59
2024/04/22 02:34:06;;;;;;;4.03;1.85;;;;;;;;;;5522633;25;20013;-57
2024/04/22 02:36:32;;;;;;;5.13;1.77;;;;;;;;;;5524687;25;20001;-59
2024/04/22 02:38:58;;;;;;;3.83;2.00;;;;;;;;;;5529879;25;20066;-58
2024/04/22 02:41:24;;;;;;;4.72;1.90;;;;;;;;;;5527094;25;20091;-56
2024/04/22 02:43:50;;;;;;;4.80;1.90;;;;;;;;;;5522946;25;20010;-59
2024/04/22 02:46:16;;;;;;;4.57;2.08;;;;;;;;;;5528582;25;19998;-59
2024/04/22 02:48:42;;;;;;;5.38;2.28;;;;;;;;;;5523822;25;20012;-59
2024/04/22 02:51:08;;;;;;;3.75;2.10;;;;;;;;;;5525859;25;20502;-59
2024/04/22 02:53:34;;;;;;;3.58;1.92;;;;;;;;;;5528821;25;20008;-59
2024/04/22 02:55:59;;;;;;;5.75;1.80;;;;;;;;;;5530332;25;20001;-60
2024/04/22 02:58:25;;;;;;;4.22;2.08;;;;;;;;;;5545484;25;20455;-59
2024/04/22 03:00:54;;;;;;;4.03;1.80;;;;;;;;;;5545641;25;20801;-59
2024/04/22 03:03:20;;;;;;;3.15;2.13;;;;;;;;;;5527512;25;19993;-58
2024/04/22 03:05:46;;;;;;;5.72;2.13;;;;;;;;;;5534777;25;20005;-59
2024/04/22 03:08:12;;;;;;;3.85;2.05;;;;;;;;;;5528065;26;20069;-54
2024/04/22 03:10:38;;;;;;;3.25;1.88;;;;;;;;;;5545113;25;20451;-59
2024/04/22 03:13:11;;;;;;;8.18;2.17;;;;;;;;;;5527693;25;20012;-58
2024/04/22 03:15:37;;;;;;;3.47;1.97;;;;;;;;;;5527686;25;20005;-59
2024/04/22 03:18:03;;;;;;;5.43;2.45;;;;;;;;;;5528325;25;20230;-59
2024/04/22 03:20:29;;;;;;;3.25;2.25;;;;;;;;;;5533363;25;19998;-58
2024/04/22 03:22:55;;;;;;;3.97;2.28;;;;;;;;;;5527818;26;20425;-58
2024/04/22 03:25:21;;;;;;;4.53;2.10;;;;;;;;;;5526274;25;20001;-59
2024/04/22 03:27:47;;;;;;;5.13;1.85;;;;;;;;;;5530004;25;20441;-58
2024/04/22 03:30:13;;;;;;;3.72;2.20;;;;;;;;;;5527438;25;20009;-57
2024/04/22 03:32:39;;;;;;;4.40;2.10;;;;;;;;;;5526958;25;20401;-59
2024/04/22 03:35:05;;;;;;;3.83;2.15;;;;;;;;;;5544972;25;20000;-58
2024/04/22 03:37:31;;;;;;;3.35;2.00;;;;;;;;;;5559943;25;20027;-58
2024/04/22 03:39:57;;;;;;;6.03;2.33;;;;;;;;;;5543974;25;19997;-58
2024/04/22 03:42:23;;;;;;;3.08;2.03;;;;;;;;;;5529264;25;20013;-58
2024/04/22 03:44:49;;;;;;;4.85;2.78;;;;;;;;;;5541565;25;20325;-57
2024/04/22 03:50:01;;;;;;;5.97;2.17;;;;;;;;;;5527477;25;20508;-58
2024/04/22 03:52:27;;;;;;;4.65;1.70;;;;;;;;;;5527235;25;19997;-59
2024/04/22 03:54:53;;;;;;;4.53;1.92;;;;;;;;;;5525303;25;20429;-59
2024/04/22 03:57:19;;;;;;;3.83;2.05;;;;;;;;;;5534661;25;20002;-57
2024/04/22 03:59:45;;;;;;;8.43;2.45;;;;;;;;;;5526313;25;20473;-57
2024/04/22 04:02:11;;;;;;;6.18;1.92;;;;;;;;;;5522462;25;20041;-56
2024/04/22 04:04:37;;;;;;;5.90;2.17;;;;;;;;;;5553473;25;20011;-58
2024/04/22 04:07:03;;;;;;;4.20;2.08;;;;;;;;;;5546358;25;20076;-57
2024/04/22 04:09:29;;;;;;;5.95;2.55;;;;;;;;;;5548181;25;20445;-53
2024/04/22 04:11:55;;;;;;;6.05;2.20;;;;;;;;;;5561422;25;19996;-52
2024/04/22 04:14:21;;;;;;;3.65;2.13;;;;;;;;;;5545222;25;20481;-51
2024/04/22 04:16:47;;;;;;;5.75;2.30;;;;;;;;;;5544920;25;20033;-53
2024/04/22 04:19:13;;;;;;;4.63;2.22;;;;;;;;;;5541365;25;19996;-54
2024/04/22 04:21:39;;;;;;;5.68;2.33;;;;;;;;;;5538446;25;20007;-55
2024/04/22 04:24:05;;;;;;;5.47;2.50;;;;;;;;;;5554201;25;20453;-55
2024/04/22 04:26:31;;;;;;;3.95;2.50;;;;;;;;;;5568712;25;20047;-54
2024/04/22 04:28:57;;;;;;;3.55;2.10;;;;;;;;;;5543385;25;19997;-54
2024/04/22 04:31:23;;;;;;;8.38;2.45;;;;;;;;;;5539525;25;20005;-55
2024/04/22 04:33:49;;;;;;;5.90;2.70;;;;;;;;;;5546766;25;19997;-55
2024/04/22 04:36:15;;;;;;;4.25;2.75;;;;;;;;;;5529210;25;20001;-54
2024/04/22 04:38:41;;;;;;;4.18;2.28;;;;;;;;;;5531434;25;20029;-56
2024/04/22 04:41:07;;;;;;;8.95;3.05;;;;;;;;;;5552234;25;20009;-54
2024/04/22 04:43:33;;;;;;;6.75;2.30;;;;;;;;;;5544913;25;20001;-55
2024/04/22 04:45:59;;;;;;;4.07;2.22;;;;;;;;;;5533731;25;20001;-54
2024/04/22 04:48:25;;;;;;;6.03;2.25;;;;;;;;;;5543643;25;20013;-55
2024/04/22 04:50:51;;;;;;;4.32;2.55;;;;;;;;;;5542008;25;19997;-55
2024/04/22 04:53:19;;;;;;;3.58;2.22;;;;;;;;;;5540771;25;20019;-55
2024/04/22 04:55:48;;;;;;;3.47;2.13;;;;;;;;;;5538158;25;20009;-55
2024/04/22 04:58:14;;;;;;;5.30;2.03;;;;;;;;;;5532318;25;19996;-55
2024/04/22 05:00:40;;;;;;;4.60;2.08;;;;;;;;;;5528881;25;20007;-54
2024/04/22 05:03:06;;;;;;;4.38;2.10;;;;;;;;;;5541363;25;19993;-55
2024/04/22 05:05:32;;;;;;;3.67;2.03;;;;;;;;;;5538250;25;20009;-55
2024/04/22 05:07:58;;;;;;;9.27;2.20;;;;;;;;;;5544845;25;19989;-55
2024/04/22 05:10:24;;;;;;;3.35;2.13;;;;;;;;;;5540920;25;20019;-54
2024/04/22 05:12:50;;;;;;;4.45;2.22;;;;;;;;;;5551267;25;20349;-55
2024/04/22 05:15:16;;;;;;;4.75;2.60;;;;;;;;;;5537286;25;20081;-55
2024/04/22 05:17:43;;;;;;;5.55;1.92;;;;;;;;;;5535517;25;20017;-54
2024/04/22 05:20:09;;;;;;;3.58;2.00;;;;;;;;;;5537708;25;20432;-55
2024/04/22 05:22:35;;;;;;;5.15;2.42;;;;;;;;;;5545916;25;19998;-55
2024/04/22 05:25:01;;;;;;;4.05;2.33;;;;;;;;;;5542833;25;20035;-55
2024/04/22 05:27:27;;;;;;;4.28;1.90;;;;;;;;;;5544215;25;19996;-56
2024/04/22 05:29:53;;;;;;;7.93;2.30;;;;;;;;;;5536502;25;20012;-59
2024/04/22 05:32:19;;;;;;;6.20;2.63;;;;;;;;;;5540081;25;20019;-59
2024/04/22 05:37:30;;;;;;;7.22;2.53;;;;;;;;;;5544516;25;20011;-59
2024/04/22 05:39:56;;;;;;;4.50;2.40;;;;;;;;;;5561132;25;20036;-59
2024/04/22 05:42:22;;;;;;;3.42;2.13;;;;;;;;;;5561466;25;20465;-59
2024/04/22 05:44:48;;;;;;;5.03;2.53;;;;;;;;;;5548138;25;19997;-57
2024/04/22 05:47:14;;;;;;;5.38;2.55;;;;;;;;;;5540366;25;20076;-59
2024/04/22 05:49:40;;;;;;;4.95;2.78;;;;;;;;;;5560733;25;19997;-59
2024/04/22 05:52:06;;;;;;;6.55;2.10;;;;;;;;;;5554011;25;20577;-59
2024/04/22 05:54:33;;;;;;;5.55;3.03;;;;;;;;;;5552169;25;20015;-59
2024/04/22 05:56:59;;;;;;;4.63;2.65;;;;;;;;;;5533782;25;20002;-58
2024/04/22 05:59:25;;;;;;;6.70;2.78;;;;;;;;;;5550007;25;20441;-59
2024/04/22 06:01:51;;;;;;;5.65;2.70;;;;;;;;;;5535871;25;20001;-59
2024/04/22 06:04:17;;;;;;;5.40;2.22;;;;;;;;;;5542283;25;20777;-58
2024/04/22 06:06:44;;;;;;;5.75;3.10;;;;;;;;;;5530905;25;19997;-59
2024/04/22 06:09:10;;;;;;;4.50;2.28;;;;;;;;;;5555889;25;19997;-59
2024/04/22 06:11:36;;;;;;;4.55;2.10;;;;;;;;;;5551901;25;19997;-59
2024/04/22 06:14:02;;;;;;;6.65;2.45;;;;;;;;;;5552772;25;20008;-59
2024/04/22 06:16:28;;;;;;;4.80;2.47;;;;;;;;;;5531832;25;20453;-59
2024/04/22 06:18:54;;;;;;;7.22;2.85;;;;;;;;;;5543515;25;20064;-59
2024/04/22 06:21:22;;;;;;;6.97;2.83;;;;;;;;;;5536904;25;20447;-59
2024/04/22 06:23:48;;;;;;;5.72;2.40;;;;;;;;;;5543330;25;20001;-59
2024/04/22 06:26:14;;;;;;;5.78;3.20;;;;;;;;;;5535539;25;20005;-59
2024/04/22 06:28:40;;;;;;;6.65;2.30;;;;;;;;;;5550435;25;19997;-59
2024/04/22 06:31:06;;;;;;;6.35;3.10;;;;;;;;;;5549023;25;20014;-59
2024/04/22 06:33:33;;;;;;;4.88;2.78;;;;;;;;;;5556931;25;19997;-59
2024/04/22 06:35:59;;;;;;;5.57;2.45;;;;;;;;;;5539545;25;20448;-59
2024/04/22 06:38:25;;;;;;;7.25;3.25;;;;;;;;;;5542416;25;20512;-52
2024/04/22 06:40:51;;;;;;;6.13;3.30;;;;;;;;;;5560715;25;20541;-52
2024/04/22 06:43:17;;;;;;;8.95;3.17;;;;;;;;;;5561001;25;19997;-51
2024/04/22 06:45:44;;;;;;;7.20;3.20;;;;;;;;;;5556483;25;20405;-54
2024/04/22 06:48:10;;;;;;;11.85;3.55;;;;;;;;;;5560774;25;20448;-54
2024/04/22 06:50:36;;;;;;;6.88;3.13;;;;;;;;;;5560506;25;20297;-54
2024/04/22 06:53:02;;;;;;;7.63;3.10;;;;;;;;;;5560310;25;19992;-52
2024/04/22 06:55:28;;;;;;;8.75;3.25;;;;;;;;;;5560520;25;20134;-52
2024/04/22 06:57:54;;;;;;;6.90;2.92;;;;;;;;;;5555739;25;20028;-51
2024/04/22 07:00:20;;;;;;;7.13;2.60;;;;;;;;;;5552853;25;20036;-53
2024/04/22 07:02:46;;;;;;;6.22;2.78;;;;;;;;;;5559860;25;20001;-53
2024/04/22 07:05:13;;;;;;;7.80;2.70;;;;;;;;;;5549410;25;20008;-53
2024/04/22 07:07:39;;;;;;;4.35;2.55;;;;;;;;;;5544831;25;20071;-54
2024/04/22 07:10:05;;;;;;;4.47;2.17;;;;;;;;;;5560262;25;20011;-52
2024/04/22 07:12:31;;;;;;;3.97;2.30;;;;;;;;;;5560076;25;20012;-52
2024/04/22 07:14:57;;;;;;;3.15;1.90;;;;;;;;;;5560206;25;19992;-54
2024/04/22 07:17:23;;;;;;;6.10;2.05;;;;;;;;;;5536659;25;20510;-55
2024/04/22 07:19:53;;;;;;;5.30;2.05;;;;;;;;;;5557662;25;19997;-53
2024/04/22 07:22:20;;;;;;;5.50;1.52;;;;;;;;;;5554085;25;20433;-52
2024/04/22 07:24:46;;;;;;;6.43;2.03;;;;;;;;;;5560224;25;19992;-53
2024/04/22 07:27:12;;;;;;;4.88;1.30;;;;;;;;;;5560109;25;20415;-52
2024/04/22 07:29:39;;;;;;;4.78;1.75;;;;;;;;;;5559915;25;20003;-52
2024/04/22 07:32:05;;;;;;;4.95;1.98;;;;;;;;;;5557772;25;20049;-52
2024/04/22 07:34:31;;;;;;;2.83;1.75;;;;;;;;;;5556903;25;20516;-50
2024/04/22 07:37:12;;;;;;;2.40;1.40;;;;;;;;;;5539732;25;19998;-52
2024/04/22 07:39:41;;;;;;;6.25;1.88;;;;;;;;;;5528307;25;20414;-60
2024/04/22 07:42:07;;;;;;;7.13;2.13;;;;;;;;;;5553087;25;20001;-55
2024/04/22 07:44:33;;;;;;;3.67;1.70;;;;;;;;;;5563552;25;20072;-59
2024/04/22 07:46:59;;;;;;;4.80;1.50;;;;;;;;;;5548792;25;19993;-58
2024/04/22 07:49:25;;;;;;;3.13;1.33;;;;;;;;;;5545909;25;20011;-59
2024/04/22 07:51:50;;;;;;;8.10;1.90;;;;;;;;;;5559989;25;20003;-60
2024/04/22 07:54:17;;;;;;;4.53;1.85;;;;;;;;;;5563057;25;20024;-59
2024/04/22 07:56:43;;;;;;;3.28;1.35;;;;;;;;;;5563290;25;19997;-57
2024/04/22 07:59:10;;;;;;;3.85;1.95;;;;;;;;;;5541322;25;20001;-58
2024/04/22 08:01:37;;;;;;;1.88;1.20;;;;;;;;;;5531081;25;20457;-60
2024/04/22 08:04:05;;;;;;;3.33;1.95;;;;;;;;;;5562808;25;19997;-59
2024/04/22 08:06:35;;;;;;;3.70;1.52;;;;;;;;;;5550094;25;20005;-61
2024/04/22 08:09:01;;;;;;;5.78;1.80;;;;;;;;;;5554046;25;19996;-59
2024/04/22 08:11:27;;;;;;;3.22;1.80;;;;;;;;;;5562615;25;20012;-59
2024/04/22 08:13:53;;;;;;;2.55;1.50;;;;;;;;;;5562065;25;20081;-60
2024/04/22 08:16:19;;;;;;;4.10;1.55;;;;;;;;;;5559820;25;20036;-60
2024/04/22 08:18:45;;;;;;;3.67;1.15;;;;;;;;;;5562995;25;20041;-59
2024/04/22 08:21:12;;;;;;;2.47;1.35;;;;;;;;;;5562921;25;20032;-60
2024/04/22 08:23:38;;;;;;;2.20;1.00;;;;;;;;;;5557072;25;20001;-59
2024/04/22 08:26:04;;;;;;;5.32;1.40;;;;;;;;;;5554865;25;20020;-59
2024/04/22 08:28:30;;;;;;;4.20;1.42;;;;;;;;;;5543590;25;20539;-61
2024/04/22 08:31:01;;;;;;;2.28;1.27;;;;;;;;;;5554187;25;19997;-61
2024/04/22 08:33:27;;;;;;;3.08;1.23;;;;;;;;;;5562462;25;20453;-59
2024/04/22 08:35:53;;;;;;;4.38;1.13;;;;;;;;;;5562700;25;20001;-58
2024/04/22 08:38:19;;;;;;;2.15;1.25;;;;;;;;;;5562896;25;20000;-60
2024/04/22 08:40:45;;;;;;;5.13;1.17;;;;;;;;;;5562432;25;20323;-60
2024/04/22 08:43:14;;;;;;;3.20;1.02;;;;;;;;;;5560049;25;20016;-60
2024/04/22 08:45:44;;;;;;;2.28;1.10;;;;;;;;;;5560964;25;20004;-60
2024/04/22 08:48:10;;;;;;;3.22;1.10;;;;;;;;;;5559442;25;20424;-60
2024/04/22 08:50:40;;;;;;;2.38;1.10;;;;;;;;;;5562064;25;20032;-60
2024/04/22 08:53:08;;;;;;;1.73;1.00;;;;;;;;;;5561925;25;20000;-60
2024/04/22 08:55:34;;;;;;;1.45;1.00;;;;;;;;;;5560317;25;19993;-60
2024/04/22 08:58:00;;;;;;;2.72;1.30;;;;;;;;;;5562620;25;20015;-60
2024/04/22 09:00:26;;;;;;;3.40;1.27;;;;;;;;;;5547191;25;19993;-56
2024/04/22 09:02:52;;;;;;;2.97;1.17;;;;;;;;;;5547805;25;20004;-57
2024/04/22 09:05:18;;;;;;;2.92;1.10;;;;;;;;;;5554627;25;20005;-56
2024/04/22 09:07:51;;;;;;;6.75;1.00;;;;;;;;;;5557339;25;20041;-56
2024/04/22 09:10:19;;;;;;;2.08;0.93;;;;;;;;;;5551739;25;20515;-57
2024/04/22 09:12:53;;;;;;;2.60;1.58;;;;;;;;;;5561804;25;20344;-57
2024/04/22 09:15:19;;;;;;;3.25;1.30;;;;;;;;;;5559852;25;20080;-56
2024/04/22 09:17:45;;;;;;;2.70;1.35;;;;;;;;;;5562016;25;20389;-56
2024/04/22 09:20:18;;;;;;;6.82;1.50;;;;;;;;;;5553744;25;20072;-56
2024/04/22 09:22:43;;;;;;;1.58;1.20;;;;;;;;;;5553201;25;20008;-56
2024/04/22 09:25:09;;;;;;;2.17;0.95;;;;;;;;;;5562087;25;20444;-57
2024/04/22 09:27:36;;;;;;;2.95;1.27;;;;;;;;;;5561843;25;20452;-57
2024/04/22 09:30:06;;;;;;;4.68;1.33;;;;;;;;;;5562149;25;20000;-56
2024/04/22 09:32:32;;;;;;;1.55;1.10;;;;;;;;;;5556951;25;19992;-56
2024/04/22 09:35:13;;;;;;;1.98;1.02;;;;;;;;;;5561813;25;20003;-57
2024/04/22 09:37:40;;;;;;;2.25;0.98;;;;;;;;;;5558908;25;20006;-56
2024/04/22 09:40:07;;;;;;;1.98;1.00;;;;;;;;;;5562042;25;20015;-57
2024/04/22 09:42:33;;;;;;;2.85;1.00;;;;;;;;;;5561336;25;20326;-57
2024/04/22 09:45:01;;;;;;;1.70;1.10;;;;;;;;;;5562037;25;20008;-56
2024/04/22 09:47:27;;;;;;;2.65;1.27;;;;;;;;;;5546645;25;20012;-56
2024/04/22 09:49:54;;;;;;;2.08;1.00;;;;;;;;;;5536521;25;19998;-56
2024/04/22 09:52:21;;;;;;;1.50;1.08;;;;;;;;;;5558695;25;20072;-57
2024/04/22 09:54:47;;;;;;;1.20;0.98;;;;;;;;;;5561803;25;20038;-56
2024/04/22 09:57:13;;;;;;;1.75;1.35;;;;;;;;;;5561595;25;20090;-57
2024/04/22 09:59:39;;;;;;;1.70;1.02;;;;;;;;;;5561632;25;19993;-60
2024/04/22 10:02:05;;;;;;;4.32;0.75;;;;;;;;;;5524358;25;20074;-60
2024/04/22 10:04:31;;;;;;;1.55;0.93;;;;;;;;;;5560619;25;20008;-59
2024/04/22 10:06:57;;;;;;;1.75;0.90;;;;;;;;;;5555586;25;19992;-60
2024/04/22 10:09:23;;;;;;;1.67;0.80;;;;;;;;;;5559655;25;20003;-54
2024/04/22 10:11:49;;;;;;;1.70;0.90;;;;;;;;;;5538476;25;20012;-54
2024/04/22 10:14:16;;;;;;;1.83;1.00;;;;;;;;;;5539333;25;20035;-54
2024/04/22 10:16:57;;;;;;;1.63;0.90;;;;;;;;;;5535647;25;20457;-53
2024/04/22 10:19:23;;;;;;;2.30;1.38;;;;;;;;;;5561224;25;20011;-52
2024/04/22 10:21:50;;;;;;;3.63;1.50;;;;;;;;;;5558860;25;19996;-54
2024/04/22 10:24:26;;;;;;;2.72;1.17;;;;;;;;;;5560584;25;19997;-54
2024/04/22 10:26:54;;;;;;;4.07;1.13;;;;;;;;;;5561187;25;19992;-54
2024/04/22 10:29:20;;;;;;;1.45;1.35;;;;;;;;;;5560898;25;20011;-53
2024/04/22 10:31:45;;;;;;;4.90;1.75;;;;;;;;;;5559217;25;20441;-53
2024/04/22 10:34:11;;;;;;;3.03;1.40;;;;;;;;;;5551301;25;20007;-56
2024/04/22 10:36:37;;;;;;;2.45;1.35;;;;;;;;;;5540928;25;20024;-53
2024/04/22 10:39:04;;;;;;;3.33;1.50;;;;;;;;;;5560755;25;20036;-53
2024/04/22 10:41:31;;;;;;;2.40;1.48;;;;;;;;;;5560951;25;20012;-55
2024/04/22 10:43:57;;;;;;;2.42;1.48;;;;;;;;;;5557525;25;20008;-53
2024/04/22 10:46:23;;;;;;;2.50;1.67;;;;;;;;;;5560583;25;20459;-57
2024/04/22 10:48:52;;;;;;;3.35;1.48;;;;;;;;;;5559183;25;19993;-55
2024/04/22 10:51:18;;;;;;;4.97;1.50;;;;;;;;;;5552523;25;20008;-54
2024/04/22 10:53:44;;;;;;;4.30;1.38;;;;;;;;;;5554405;25;19992;-53
2024/04/22 10:56:10;;;;;;;2.60;1.13;;;;;;;;;;5560342;25;20041;-54
2024/04/22 10:58:35;;;;;;;2.40;1.20;;;;;;;;;;5539267;25;20068;-53
2024/04/22 11:01:02;;;;;;;3.13;0.90;;;;;;;;;;5557254;25;20447;-52
2024/04/22 11:03:28;;;;;;;3.20;1.55;;;;;;;;;;5556561;25;20396;-53
2024/04/22 11:06:02;;;;;;;1.73;1.30;;;;;;;;;;5540876;25;20001;-53
2024/04/22 11:08:28;;;;;;;2.97;1.23;;;;;;;;;;5551075;25;20007;-51
2024/04/22 11:10:54;;;;;;;3.30;1.20;;;;;;;;;;5560035;25;20297;-54
2024/04/22 11:13:20;;;;;;;2.10;1.30;;;;;;;;;;5562928;25;20000;-53
2024/04/22 11:15:46;;;;;;;2.65;1.52;;;;;;;;;;5564014;25;20469;-54
2024/04/22 11:18:12;;;;;;;2.53;1.40;;;;;;;;;;5548078;25;19997;-57
2024/04/22 11:20:39;;;;;;;3.42;1.60;;;;;;;;;;5548506;25;19996;-57
2024/04/22 11:23:05;;;;;;;5.82;1.90;;;;;;;;;;5557747;25;19992;-56
2024/04/22 11:25:31;;;;;;;2.58;1.58;;;;;;;;;;5552367;25;20000;-57
2024/04/22 11:27:57;;;;;;;3.60;1.60;;;;;;;;;;5561680;25;20012;-57
2024/04/22 11:30:23;;;;;;;4.65;3.05;;;;;;;;;;5563805;25;20001;-56
2024/04/22 11:32:50;;;;;;;8.02;1.80;;;;;;;;;;5552997;25;20072;-56
2024/04/22 11:35:16;;;;;;;5.15;1.35;;;;;;;;;;5555698;25;20290;-57
2024/04/22 11:37:41;;;;;;;3.05;1.80;;;;;;;;;;5563572;25;20053;-57
2024/04/22 11:40:09;;;;;;;1.92;1.27;;;;;;;;;;5555216;25;20033;-56
2024/04/22 11:42:35;;;;;;;3.95;2.65;;;;;;;;;;5552629;25;19993;-57
2024/04/22 11:45:01;;;;;;;2.60;1.25;;;;;;;;;;5548766;25;20017;-56
2024/04/22 11:47:27;;;;;;;3.72;1.23;;;;;;;;;;5538546;25;19997;-57
2024/04/22 11:49:53;;;;;;;4.18;1.73;;;;;;;;;;5548295;25;20009;-57
2024/04/22 11:52:22;;;;;;;3.22;1.27;;;;;;;;;;5559420;25;20325;-57
2024/04/22 11:54:48;;;;;;;1.80;0.82;;;;;;;;;;5558307;25;20013;-57
2024/04/22 11:57:14;;;;;;;1.55;1.02;;;;;;;;;;5559566;25;19994;-57
2024/04/22 11:59:40;;;;;;;1.55;1.10;;;;;;;;;;5558094;25;20002;-57
2024/04/22 12:02:06;;;;;;;1.10;0.82;;;;;;;;;;5561712;25;19997;-57
2024/04/22 12:04:32;;;;;;;2.03;1.10;;;;;;;;;;5559919;25;20057;-57
2024/04/22 12:06:58;;;;;;;4.85;0.98;;;;;;;;;;5547758;25;20041;-57
2024/04/22 12:09:24;;;;;;;2.25;1.17;;;;;;;;;;5545001;25;19989;-57
2024/04/22 12:11:50;;;;;;;2.42;0.95;;;;;;;;;;5562752;25;20858;-57
2024/04/22 12:14:16;;;;;;;2.20;1.13;;;;;;;;;;5562580;25;19992;-56
2024/04/22 12:16:42;;;;;;;3.40;0.95;;;;;;;;;;5562859;25;20108;-57
2024/04/22 12:19:08;;;;;;;1.02;0.70;;;;;;;;;;5561207;25;20007;-61
2024/04/22 12:21:34;;;;;;;0.88;0.60;;;;;;;;;;5562979;25;20009;-60
2024/04/22 12:24:00;;;;;;;1.85;0.50;;;;;;;;;;5557950;25;20007;-62
2024/04/22 12:26:26;;;;;;;1.30;0.63;;;;;;;;;;5538309;25;19996;-61
2024/04/22 12:28:52;;;;;;;1.25;0.60;;;;;;;;;;5562736;25;20024;-61
2024/04/22 12:31:18;;;;;;;1.58;0.50;;;;;;;;;;5560541;25;19996;-61
2024/04/22 12:33:43;;;;;;;0.52;0.50;;;;;;;;;;5550876;25;20093;-61
2024/04/22 12:36:09;;;;;;;1.10;0.50;;;;;;;;;;5540376;25;19992;-61
2024/04/22 12:38:35;;;;;;;0.75;0.30;;;;;;;;;;5562885;25;20428;-61
2024/04/22 12:41:03;;;;;;;0.70;0.40;;;;;;;;;;5558927;25;20419;-61
2024/04/22 12:43:29;;;;;;;0.98;0.70;;;;;;;;;;5562228;25;20028;-61
2024/04/22 12:45:55;;;;;;;1.67;0.45;;;;;;;;;;5547362;25;20033;-61
2024/04/22 12:51:08;;;;;;;2.03;0.65;;;;;;;;;;5548769;25;20011;-60
2024/04/22 12:53:34;;;;;;;0.82;0.55;;;;;;;;;;5561066;25;20015;-60
2024/04/22 12:56:01;;;;;;;1.13;0.52;;;;;;;;;;5562420;25;20024;-60
2024/04/22 12:58:28;;;;;;;3.95;0.38;;;;;;;;;;5562550;25;20467;-60
2024/04/22 13:00:54;;;;;;;1.77;0.50;;;;;;;;;;5562372;25;19997;-60
2024/04/22 13:03:20;;;;;;;2.60;0.60;;;;;;;;;;5556947;25;19992;-60
2024/04/22 13:05:46;;;;;;;1.38;0.73;;;;;;;;;;5537204;25;19997;-59
2024/04/22 13:08:12;;;;;;;1.20;0.50;;;;;;;;;;5554051;25;20015;-60
2024/04/22 13:10:38;;;;;;;1.90;0.70;;;;;;;;;;5559140;25;20487;-60
2024/04/22 13:13:04;;;;;;;1.77;0.70;;;;;;;;;;5561427;25;20093;-59
2024/04/22 13:15:30;;;;;;;3.67;1.60;;;;;;;;;;5562251;25;20008;-60
2024/04/22 13:17:56;;;;;;;1.30;0.90;;;;;;;;;;5561577;25;19999;-60
2024/04/22 13:20:22;;;;;;;0.88;0.77;;;;;;;;;;5560469;25;19996;-60
2024/04/22 13:22:48;;;;;;;1.27;0.68;;;;;;;;;;5561142;25;19993;-60
2024/04/22 13:25:14;;;;;;;1.67;0.82;;;;;;;;;;5557058;25;20129;-60
2024/04/22 13:27:41;;;;;;;0.50;0.50;;;;;;;;;;5538255;25;19994;-60
2024/04/22 13:30:11;;;;;;;1.13;0.70;;;;;;;;;;5545808;25;20001;-57
2024/04/22 13:32:38;;;;;;;11.35;3.50;;;;;;;;;;5561141;25;20003;-57
2024/04/22 13:35:04;;;;;;;3.05;1.95;;;;;;;;;;5558248;25;20357;-57
2024/04/22 13:37:30;;;;;;;2.55;1.00;;;;;;;;;;5561296;25;20008;-57
2024/04/22 13:39:56;;;;;;;3.53;2.47;;;;;;;;;;5554092;25;20000;-61
2024/04/22 13:42:22;;;;;;;8.60;5.20;;;;;;;;;;5557253;25;20004;-60
2024/04/22 13:44:48;;;;;;;3.97;2.10;;;;;;;;;;5546095;25;20004;-59
2024/04/22 13:47:14;;;;;;;2.15;1.10;;;;;;;;;;5548844;25;19993;-60
2024/04/22 13:49:40;;;;;;;2.88;0.90;;;;;;;;;;5557300;25;20036;-60
2024/04/22 13:52:06;;;;;;;2.28;0.80;;;;;;;;;;5558931;25;20020;-58
2024/04/22 13:54:32;;;;;;;2.30;1.02;;;;;;;;;;5549398;25;19993;-60
2024/04/22 13:56:58;;;;;;;3.80;0.77;;;;;;;;;;5561569;25;19993;-60
2024/04/22 13:59:24;;;;;;;3.40;0.85;;;;;;;;;;5556428;25;19999;-60
2024/04/22 14:01:50;;;;;;;2.08;0.75;;;;;;;;;;5550635;25;20004;-61
2024/04/22 14:04:16;;;;;;;1.95;0.75;;;;;;;;;;5544202;25;20012;-60
2024/04/22 14:06:42;;;;;;;3.85;0.80;;;;;;;;;;5540668;25;20001;-60
2024/04/22 14:09:09;;;;;;;1.02;0.70;;;;;;;;;;5555890;25;20009;-60
2024/04/22 14:11:35;;;;;;;0.75;0.70;;;;;;;;;;5555513;25;20027;-59
2024/04/22 14:14:01;;;;;;;1.40;0.85;;;;;;;;;;5560920;25;20024;-60
2024/04/22 14:16:26;;;;;;;8.85;7.45;;;;;;;;;;5551676;25;19993;-60
2024/04/22 14:18:53;;;;;;;1.95;0.98;;;;;;;;;;5550668;25;20001;-61
2024/04/22 14:21:19;;;;;;;2.30;1.67;;;;;;;;;;5557010;25;19997;-60
2024/04/22 14:23:45;;;;;;;2.38;0.57;;;;;;;;;;5553147;25;20000;-60
2024/04/22 14:26:11;;;;;;;0.95;0.70;;;;;;;;;;5547735;25;20063;-60
2024/04/22 14:28:37;;;;;;;2.10;1.40;;;;;;;;;;5548401;25;20104;-60
2024/04/22 14:31:03;;;;;;;14.68;12.60;;;;;;;;;;5550019;25;19997;-60
2024/04/22 14:33:29;;;;;;;3.50;1.77;;;;;;;;;;5535273;25;20116;-60
2024/04/22 14:35:55;;;;;;;3.10;0.90;;;;;;;;;;5541330;25;20021;-60
2024/04/22 14:38:21;;;;;;;2.60;1.00;;;;;;;;;;5552439;25;20106;-60
2024/04/22 14:40:47;;;;;;;1.30;1.10;;;;;;;;;;5551986;25;20004;-60
2024/04/22 14:43:13;;;;;;;1.70;1.02;;;;;;;;;;5532477;25;20429;-60
2024/04/22 14:45:40;;;;;;;4.18;1.73;;;;;;;;;;5540376;25;20333;-60